Terminal Aerodrome Forecast
Issued by NWS Cleveland, OH

Home | Current Version | Previous Version | Graphics & Text | Print | Product List | Glossary On
Versions: 1 2 3 4 5 6 7 8 9 10 11 12 13 14 15 16 17 18
887
FTUS41 KCLE 230523
TAFERI
TAF
KERI 230523Z 2306/2406 19014KT P6SM SCT015 BKN035
      TEMPO 2306/2310 5SM BR BKN015
     FM231000 19014KT 6SM HZ BKN025
      TEMPO 2310/2314 4SM BR BKN015
     FM231400 20014G20KT 6SM HZ BKN025
     FM232200 32008KT 5SM BR VCSH OVC022
     FM240200 06006KT 4SM -RA BR OVC012=

USA.gov is the U.S. government's official web portal to all federal, state and local government web resources and services.